sensor_id;sensor_type;location;lat;lon;timestamp;temperature;humidity
25108;DHT22;13090;53.422;7.670;2022-08-24T00:01:01;24.10;49.30
25108;DHT22;13090;53.422;7.670;2022-08-24T00:06:06;24.00;49.20
25108;DHT22;13090;53.422;7.670;2022-08-24T00:11:10;23.90;49.40
25108;DHT22;13090;53.422;7.670;2022-08-24T00:16:13;23.90;49.60
25108;DHT22;13090;53.422;7.670;2022-08-24T00:21:18;23.70;49.70
25108;DHT22;13090;53.422;7.670;2022-08-24T00:26:22;23.60;49.70
25108;DHT22;13090;53.422;7.670;2022-08-24T00:31:30;23.50;50.10
25108;DHT22;13090;53.422;7.670;2022-08-24T00:36:33;23.40;50.20
25108;DHT22;13090;53.422;7.670;2022-08-24T00:41:39;23.30;50.40
25108;DHT22;13090;53.422;7.670;2022-08-24T00:46:46;23.20;50.70
25108;DHT22;13090;53.422;7.670;2022-08-24T00:51:56;23.10;50.60
25108;DHT22;13090;53.422;7.670;2022-08-24T00:57:04;23.00;50.80
25108;DHT22;13090;53.422;7.670;2022-08-24T01:02:16;23.00;50.90
25108;DHT22;13090;53.422;7.670;2022-08-24T01:07:21;23.00;51.00
25108;DHT22;13090;53.422;7.670;2022-08-24T01:12:26;23.00;51.20
25108;DHT22;13090;53.422;7.670;2022-08-24T01:17:30;23.00;51.30
25108;DHT22;13090;53.422;7.670;2022-08-24T01:22:49;22.90;51.20
25108;DHT22;13090;53.422;7.670;2022-08-24T01:27:58;22.90;51.60
25108;DHT22;13090;53.422;7.670;2022-08-24T01:33:06;22.90;51.50
25108;DHT22;13090;53.422;7.670;2022-08-24T01:38:09;22.90;51.50
25108;DHT22;13090;53.422;7.670;2022-08-24T01:43:14;22.90;51.80
25108;DHT22;13090;53.422;7.670;2022-08-24T01:48:16;22.80;52.10
25108;DHT22;13090;53.422;7.670;2022-08-24T01:53:24;22.70;52.00
25108;DHT22;13090;53.422;7.670;2022-08-24T01:58:28;22.60;52.10
25108;DHT22;13090;53.422;7.670;2022-08-24T02:03:30;22.50;52.30
25108;DHT22;13090;53.422;7.670;2022-08-24T02:08:33;22.50;52.30
25108;DHT22;13090;53.422;7.670;2022-08-24T02:13:38;22.40;52.40
25108;DHT22;13090;53.422;7.670;2022-08-24T02:18:41;22.40;53.00
25108;DHT22;13090;53.422;7.670;2022-08-24T02:23:44;22.30;53.00
25108;DHT22;13090;53.422;7.670;2022-08-24T02:28:48;22.20;53.00
25108;DHT22;13090;53.422;7.670;2022-08-24T02:33:50;22.10;53.30
25108;DHT22;13090;53.422;7.670;2022-08-24T02:38:53;22.00;53.30
25108;DHT22;13090;53.422;7.670;2022-08-24T02:43:57;22.00;53.70
25108;DHT22;13090;53.422;7.670;2022-08-24T02:49:00;22.00;54.40
25108;DHT22;13090;53.422;7.670;2022-08-24T02:54:14;21.90;54.40
25108;DHT22;13090;53.422;7.670;2022-08-24T02:59:18;21.90;54.70
25108;DHT22;13090;53.422;7.670;2022-08-24T03:04:20;21.80;54.90
25108;DHT22;13090;53.422;7.670;2022-08-24T03:09:23;21.70;54.90
25108;DHT22;13090;53.422;7.670;2022-08-24T03:14:31;21.50;54.80
25108;DHT22;13090;53.422;7.670;2022-08-24T03:19:33;21.30;55.80
25108;DHT22;13090;53.422;7.670;2022-08-24T03:24:36;21.10;55.70
25108;DHT22;13090;53.422;7.670;2022-08-24T03:29:40;20.90;56.40
25108;DHT22;13090;53.422;7.670;2022-08-24T03:34:42;20.90;56.80
25108;DHT22;13090;53.422;7.670;2022-08-24T03:39:45;20.80;56.50
25108;DHT22;13090;53.422;7.670;2022-08-24T03:44:49;20.80;56.70
25108;DHT22;13090;53.422;7.670;2022-08-24T03:49:51;20.80;56.80
25108;DHT22;13090;53.422;7.670;2022-08-24T03:54:53;20.80;56.60
25108;DHT22;13090;53.422;7.670;2022-08-24T03:59:58;20.70;56.90
25108;DHT22;13090;53.422;7.670;2022-08-24T04:05:00;20.80;57.30
25108;DHT22;13090;53.422;7.670;2022-08-24T04:10:03;20.80;57.20
25108;DHT22;13090;53.422;7.670;2022-08-24T04:15:09;20.80;57.20
25108;DHT22;13090;53.422;7.670;2022-08-24T04:20:11;20.70;57.50
25108;DHT22;13090;53.422;7.670;2022-08-24T04:25:14;20.70;57.50
25108;DHT22;13090;53.422;7.670;2022-08-24T04:30:18;20.70;57.50
25108;DHT22;13090;53.422;7.670;2022-08-24T04:35:20;20.80;57.90
25108;DHT22;13090;53.422;7.670;2022-08-24T04:40:23;20.70;57.90
25108;DHT22;13090;53.422;7.670;2022-08-24T04:45:27;20.70;58.90
25108;DHT22;13090;53.422;7.670;2022-08-24T04:50:30;20.60;59.10
25108;DHT22;13090;53.422;7.670;2022-08-24T04:55:43;20.40;59.20
25108;DHT22;13090;53.422;7.670;2022-08-24T05:00:47;20.30;60.10
25108;DHT22;13090;53.422;7.670;2022-08-24T05:05:50;20.30;60.60
25108;DHT22;13090;53.422;7.670;2022-08-24T05:10:53;20.50;60.50
25108;DHT22;13090;53.422;7.670;2022-08-24T05:15:57;20.90;60.70
25108;DHT22;13090;53.422;7.670;2022-08-24T05:20:59;21.40;60.70
25108;DHT22;13090;53.422;7.670;2022-08-24T05:26:06;22.00;60.10
25108;DHT22;13090;53.422;7.670;2022-08-24T05:31:12;22.70;59.20
25108;DHT22;13090;53.422;7.670;2022-08-24T05:36:17;23.40;58.20
25108;DHT22;13090;53.422;7.670;2022-08-24T05:41:20;24.00;57.30
25108;DHT22;13090;53.422;7.670;2022-08-24T05:46:24;24.60;56.60
25108;DHT22;13090;53.422;7.670;2022-08-24T05:51:27;25.30;55.50
25108;DHT22;13090;53.422;7.670;2022-08-24T05:56:30;25.90;55.30
25108;DHT22;13090;53.422;7.670;2022-08-24T06:01:34;26.60;54.30
25108;DHT22;13090;53.422;7.670;2022-08-24T06:06:37;27.40;52.90
25108;DHT22;13090;53.422;7.670;2022-08-24T06:11:41;27.90;51.20
25108;DHT22;13090;53.422;7.670;2022-08-24T06:16:46;28.10;49.80
25108;DHT22;13090;53.422;7.670;2022-08-24T06:21:51;28.10;49.70
25108;DHT22;13090;53.422;7.670;2022-08-24T06:26:53;28.10;48.70
25108;DHT22;13090;53.422;7.670;2022-08-24T06:31:57;28.20;49.40
25108;DHT22;13090;53.422;7.670;2022-08-24T06:37:01;28.40;49.10
25108;DHT22;13090;53.422;7.670;2022-08-24T06:42:03;28.80;48.80
25108;DHT22;13090;53.422;7.670;2022-08-24T06:47:08;29.30;48.30
25108;DHT22;13090;53.422;7.670;2022-08-24T06:52:10;29.60;47.80
25108;DHT22;13090;53.422;7.670;2022-08-24T06:57:12;30.00;47.70
25108;DHT22;13090;53.422;7.670;2022-08-24T07:02:17;30.50;46.20
25108;DHT22;13090;53.422;7.670;2022-08-24T07:07:19;30.70;46.00
25108;DHT22;13090;53.422;7.670;2022-08-24T07:12:21;30.90;45.70
25108;DHT22;13090;53.422;7.670;2022-08-24T07:17:25;31.20;44.70
25108;DHT22;13090;53.422;7.670;2022-08-24T07:22:30;31.50;44.50
25108;DHT22;13090;53.422;7.670;2022-08-24T07:27:33;31.80;44.40
25108;DHT22;13090;53.422;7.670;2022-08-24T07:32:37;32.00;44.20
25108;DHT22;13090;53.422;7.670;2022-08-24T07:37:39;32.30;43.70
25108;DHT22;13090;53.422;7.670;2022-08-24T07:42:46;32.60;43.30
25108;DHT22;13090;53.422;7.670;2022-08-24T07:47:50;32.70;42.90
25108;DHT22;13090;53.422;7.670;2022-08-24T07:52:56;32.90;42.90
25108;DHT22;13090;53.422;7.670;2022-08-24T07:57:59;33.20;42.90
25108;DHT22;13090;53.422;7.670;2022-08-24T08:03:03;33.40;41.80
25108;DHT22;13090;53.422;7.670;2022-08-24T08:08:06;33.50;41.10
25108;DHT22;13090;53.422;7.670;2022-08-24T08:13:08;33.50;41.70
25108;DHT22;13090;53.422;7.670;2022-08-24T08:18:14;33.60;42.10
25108;DHT22;13090;53.422;7.670;2022-08-24T08:23:17;34.00;41.90
25108;DHT22;13090;53.422;7.670;2022-08-24T08:28:20;34.50;41.90
25108;DHT22;13090;53.422;7.670;2022-08-24T08:33:29;34.90;41.10
25108;DHT22;13090;53.422;7.670;2022-08-24T08:38:32;35.30;40.20
25108;DHT22;13090;53.422;7.670;2022-08-24T08:43:40;35.40;39.80
25108;DHT22;13090;53.422;7.670;2022-08-24T08:49:02;35.30;38.80
25108;DHT22;13090;53.422;7.670;2022-08-24T08:54:28;35.00;38.70
25108;DHT22;13090;53.422;7.670;2022-08-24T08:59:43;35.00;39.20
25108;DHT22;13090;53.422;7.670;2022-08-24T09:05:05;35.20;39.40
25108;DHT22;13090;53.422;7.670;2022-08-24T09:10:36;35.60;39.00
25108;DHT22;13090;53.422;7.670;2022-08-24T09:16:07;35.90;38.50
25108;DHT22;13090;53.422;7.670;2022-08-24T09:21:37;36.20;38.60
25108;DHT22;13090;53.422;7.670;2022-08-24T09:26:49;36.30;38.10
25108;DHT22;13090;53.422;7.670;2022-08-24T09:32:06;36.60;38.20
25108;DHT22;13090;53.422;7.670;2022-08-24T09:37:33;36.90;37.50
25108;DHT22;13090;53.422;7.670;2022-08-24T09:48:59;37.50;36.50
25108;DHT22;13090;53.422;7.670;2022-08-24T10:00:00;37.60;36.10
25108;DHT22;13090;53.422;7.670;2022-08-24T10:05:12;37.60;36.10
25108;DHT22;13090;53.422;7.670;2022-08-24T10:10:29;38.00;36.10
25108;DHT22;13090;53.422;7.670;2022-08-24T10:15:45;38.20;35.00
25108;DHT22;13090;53.422;7.670;2022-08-24T10:21:06;38.20;34.80
25108;DHT22;13090;53.422;7.670;2022-08-24T10:26:21;38.50;35.20
25108;DHT22;13090;53.422;7.670;2022-08-24T10:31:32;39.00;34.70
25108;DHT22;13090;53.422;7.670;2022-08-24T10:36:48;39.20;33.90
25108;DHT22;13090;53.422;7.670;2022-08-24T10:47:58;39.20;35.10
25108;DHT22;13090;53.422;7.670;2022-08-24T10:53:27;39.90;33.90
25108;DHT22;13090;53.422;7.670;2022-08-24T11:04:05;40.70;32.30
25108;DHT22;13090;53.422;7.670;2022-08-24T11:09:11;40.90;32.30
25108;DHT22;13090;53.422;7.670;2022-08-24T11:14:26;41.40;32.30
25108;DHT22;13090;53.422;7.670;2022-08-24T11:19:33;41.40;30.50
25108;DHT22;13090;53.422;7.670;2022-08-24T11:24:43;41.00;31.70
25108;DHT22;13090;53.422;7.670;2022-08-24T11:30:00;41.00;31.50
25108;DHT22;13090;53.422;7.670;2022-08-24T11:35:08;41.10;30.80
25108;DHT22;13090;53.422;7.670;2022-08-24T11:40:12;40.90;31.20
25108;DHT22;13090;53.422;7.670;2022-08-24T11:45:22;40.90;31.40
25108;DHT22;13090;53.422;7.670;2022-08-24T11:50:34;41.00;30.80
25108;DHT22;13090;53.422;7.670;2022-08-24T11:55:42;40.80;31.00
25108;DHT22;13090;53.422;7.670;2022-08-24T12:00:57;40.50;31.70
25108;DHT22;13090;53.422;7.670;2022-08-24T12:06:12;40.70;31.80
25108;DHT22;13090;53.422;7.670;2022-08-24T12:11:28;41.00;31.40
25108;DHT22;13090;53.422;7.670;2022-08-24T12:16:39;41.30;31.80
25108;DHT22;13090;53.422;7.670;2022-08-24T12:21:49;41.20;30.00
25108;DHT22;13090;53.422;7.670;2022-08-24T12:26:56;40.30;30.30
25108;DHT22;13090;53.422;7.670;2022-08-24T12:32:02;39.30;31.00
25108;DHT22;13090;53.422;7.670;2022-08-24T12:37:10;38.60;32.00
25108;DHT22;13090;53.422;7.670;2022-08-24T12:42:21;38.20;32.10
25108;DHT22;13090;53.422;7.670;2022-08-24T12:47:26;37.70;32.60
25108;DHT22;13090;53.422;7.670;2022-08-24T12:58:28;36.50;33.70
25108;DHT22;13090;53.422;7.670;2022-08-24T13:03:39;36.20;34.80
25108;DHT22;13090;53.422;7.670;2022-08-24T13:08:46;36.40;34.90
25108;DHT22;13090;53.422;7.670;2022-08-24T13:14:14;36.80;34.30
25108;DHT22;13090;53.422;7.670;2022-08-24T13:19:32;36.80;34.00
25108;DHT22;13090;53.422;7.670;2022-08-24T13:24:45;36.60;34.90
25108;DHT22;13090;53.422;7.670;2022-08-24T13:29:52;36.60;34.50
25108;DHT22;13090;53.422;7.670;2022-08-24T13:34:56;36.50;35.10
25108;DHT22;13090;53.422;7.670;2022-08-24T13:40:13;36.20;34.80
25108;DHT22;13090;53.422;7.670;2022-08-24T13:45:24;35.80;35.20
25108;DHT22;13090;53.422;7.670;2022-08-24T13:50:32;35.40;35.70
25108;DHT22;13090;53.422;7.670;2022-08-24T13:55:44;34.90;35.90
25108;DHT22;13090;53.422;7.670;2022-08-24T14:00:54;34.90;36.80
25108;DHT22;13090;53.422;7.670;2022-08-24T14:06:21;35.10;36.60
25108;DHT22;13090;53.422;7.670;2022-08-24T14:12:00;35.50;36.40
25108;DHT22;13090;53.422;7.670;2022-08-24T14:17:14;36.00;36.20
25108;DHT22;13090;53.422;7.670;2022-08-24T14:22:29;36.30;35.90
25108;DHT22;13090;53.422;7.670;2022-08-24T14:27:39;36.40;34.70
25108;DHT22;13090;53.422;7.670;2022-08-24T14:33:05;36.40;35.50
25108;DHT22;13090;53.422;7.670;2022-08-24T14:38:29;36.30;35.30
25108;DHT22;13090;53.422;7.670;2022-08-24T14:44:01;36.10;35.00
25108;DHT22;13090;53.422;7.670;2022-08-24T14:49:12;35.70;35.20
25108;DHT22;13090;53.422;7.670;2022-08-24T14:54:25;35.30;35.50
25108;DHT22;13090;53.422;7.670;2022-08-24T14:59:40;35.20;35.50
25108;DHT22;13090;53.422;7.670;2022-08-24T15:04:48;35.10;35.30
25108;DHT22;13090;53.422;7.670;2022-08-24T15:09:53;35.10;35.70
25108;DHT22;13090;53.422;7.670;2022-08-24T15:15:03;35.00;35.70
25108;DHT22;13090;53.422;7.670;2022-08-24T15:20:14;34.90;37.10
25108;DHT22;13090;53.422;7.670;2022-08-24T15:25:31;34.60;36.30
25108;DHT22;13090;53.422;7.670;2022-08-24T15:30:38;34.40;36.10
25108;DHT22;13090;53.422;7.670;2022-08-24T15:35:43;34.20;36.60
25108;DHT22;13090;53.422;7.670;2022-08-24T15:40:48;34.20;37.30
25108;DHT22;13090;53.422;7.670;2022-08-24T15:45:53;34.30;37.10
25108;DHT22;13090;53.422;7.670;2022-08-24T15:50:55;34.60;37.20
25108;DHT22;13090;53.422;7.670;2022-08-24T16:01:25;34.90;36.80
25108;DHT22;13090;53.422;7.670;2022-08-24T16:06:36;34.90;36.10
25108;DHT22;13090;53.422;7.670;2022-08-24T16:11:41;34.70;36.30
25108;DHT22;13090;53.422;7.670;2022-08-24T16:16:46;34.50;36.90
25108;DHT22;13090;53.422;7.670;2022-08-24T16:21:55;34.50;36.80
25108;DHT22;13090;53.422;7.670;2022-08-24T16:27:06;34.40;37.60
25108;DHT22;13090;53.422;7.670;2022-08-24T16:32:15;34.40;37.40
25108;DHT22;13090;53.422;7.670;2022-08-24T16:37:33;34.40;37.50
25108;DHT22;13090;53.422;7.670;2022-08-24T16:42:36;34.20;37.10
25108;DHT22;13090;53.422;7.670;2022-08-24T16:47:42;34.00;37.70
25108;DHT22;13090;53.422;7.670;2022-08-24T16:52:46;33.90;38.20
25108;DHT22;13090;53.422;7.670;2022-08-24T16:57:49;33.80;38.20
25108;DHT22;13090;53.422;7.670;2022-08-24T17:02:53;33.70;38.20
25108;DHT22;13090;53.422;7.670;2022-08-24T17:07:57;33.60;38.50
25108;DHT22;13090;53.422;7.670;2022-08-24T17:12:59;33.50;38.70
25108;DHT22;13090;53.422;7.670;2022-08-24T17:18:06;33.50;39.30
25108;DHT22;13090;53.422;7.670;2022-08-24T17:23:10;33.50;40.70
25108;DHT22;13090;53.422;7.670;2022-08-24T17:28:15;33.50;40.60
25108;DHT22;13090;53.422;7.670;2022-08-24T17:33:20;33.50;41.60
25108;DHT22;13090;53.422;7.670;2022-08-24T17:38:23;33.40;41.50
25108;DHT22;13090;53.422;7.670;2022-08-24T17:43:25;33.30;41.10
25108;DHT22;13090;53.422;7.670;2022-08-24T17:48:29;33.20;41.10
25108;DHT22;13090;53.422;7.670;2022-08-24T17:53:35;33.10;41.40
25108;DHT22;13090;53.422;7.670;2022-08-24T17:58:37;32.90;41.20
25108;DHT22;13090;53.422;7.670;2022-08-24T18:03:41;32.80;41.40
25108;DHT22;13090;53.422;7.670;2022-08-24T18:08:44;32.50;41.60
25108;DHT22;13090;53.422;7.670;2022-08-24T18:13:47;32.30;41.70
25108;DHT22;13090;53.422;7.670;2022-08-24T18:18:52;32.10;41.70
25108;DHT22;13090;53.422;7.670;2022-08-24T18:23:55;31.90;42.00
25108;DHT22;13090;53.422;7.670;2022-08-24T18:29:02;31.60;41.90
25108;DHT22;13090;53.422;7.670;2022-08-24T18:34:19;31.40;42.20
25108;DHT22;13090;53.422;7.670;2022-08-24T18:39:22;31.20;42.80
25108;DHT22;13090;53.422;7.670;2022-08-24T18:44:25;31.00;42.50
25108;DHT22;13090;53.422;7.670;2022-08-24T18:49:34;30.80;42.90
25108;DHT22;13090;53.422;7.670;2022-08-24T18:54:40;30.60;43.20
25108;DHT22;13090;53.422;7.670;2022-08-24T18:59:43;30.50;43.60
25108;DHT22;13090;53.422;7.670;2022-08-24T19:04:47;30.30;43.60
25108;DHT22;13090;53.422;7.670;2022-08-24T19:09:49;30.10;44.10
25108;DHT22;13090;53.422;7.670;2022-08-24T19:14:55;29.90;44.40
25108;DHT22;13090;53.422;7.670;2022-08-24T19:19:59;29.70;44.70
25108;DHT22;13090;53.422;7.670;2022-08-24T19:25:02;29.60;45.10
25108;DHT22;13090;53.422;7.670;2022-08-24T19:30:06;29.40;45.30
25108;DHT22;13090;53.422;7.670;2022-08-24T19:35:11;29.20;45.60
25108;DHT22;13090;53.422;7.670;2022-08-24T19:40:16;29.00;46.10
25108;DHT22;13090;53.422;7.670;2022-08-24T19:45:23;28.90;46.30
25108;DHT22;13090;53.422;7.670;2022-08-24T19:50:29;28.70;46.40
25108;DHT22;13090;53.422;7.670;2022-08-24T19:55:37;28.60;45.50
25108;DHT22;13090;53.422;7.670;2022-08-24T20:00:42;28.40;46.10
25108;DHT22;13090;53.422;7.670;2022-08-24T20:05:55;28.30;47.00
25108;DHT22;13090;53.422;7.670;2022-08-24T20:10:58;28.10;47.40
25108;DHT22;13090;53.422;7.670;2022-08-24T20:16:04;28.00;47.40
25108;DHT22;13090;53.422;7.670;2022-08-24T20:21:14;27.90;48.00
25108;DHT22;13090;53.422;7.670;2022-08-24T20:26:18;27.60;48.20
25108;DHT22;13090;53.422;7.670;2022-08-24T20:31:23;27.40;48.40
25108;DHT22;13090;53.422;7.670;2022-08-24T20:36:34;27.20;48.60
25108;DHT22;13090;53.422;7.670;2022-08-24T20:41:38;27.10;50.40
25108;DHT22;13090;53.422;7.670;2022-08-24T20:46:40;26.80;49.80
25108;DHT22;13090;53.422;7.670;2022-08-24T20:51:49;26.70;50.30
25108;DHT22;13090;53.422;7.670;2022-08-24T20:56:51;26.40;51.60
25108;DHT22;13090;53.422;7.670;2022-08-24T21:01:54;26.20;51.20
25108;DHT22;13090;53.422;7.670;2022-08-24T21:06:58;26.10;52.60
25108;DHT22;13090;53.422;7.670;2022-08-24T21:12:00;25.90;52.80
25108;DHT22;13090;53.422;7.670;2022-08-24T21:17:03;25.80;53.10
25108;DHT22;13090;53.422;7.670;2022-08-24T21:22:07;25.60;53.10
25108;DHT22;13090;53.422;7.670;2022-08-24T21:27:10;25.50;53.80
25108;DHT22;13090;53.422;7.670;2022-08-24T21:32:13;25.50;53.80
25108;DHT22;13090;53.422;7.670;2022-08-24T21:37:17;25.40;53.70
25108;DHT22;13090;53.422;7.670;2022-08-24T21:42:20;25.40;53.10
25108;DHT22;13090;53.422;7.670;2022-08-24T21:47:22;25.40;53.10
25108;DHT22;13090;53.422;7.670;2022-08-24T21:52:26;25.40;53.00
25108;DHT22;13090;53.422;7.670;2022-08-24T21:57:29;25.40;53.10
25108;DHT22;13090;53.422;7.670;2022-08-24T22:02:31;25.40;52.70
25108;DHT22;13090;53.422;7.670;2022-08-24T22:07:35;25.40;52.40
25108;DHT22;13090;53.422;7.670;2022-08-24T22:12:39;25.30;52.40
25108;DHT22;13090;53.422;7.670;2022-08-24T22:17:43;25.30;52.30
25108;DHT22;13090;53.422;7.670;2022-08-24T22:22:48;25.30;52.30
25108;DHT22;13090;53.422;7.670;2022-08-24T22:27:50;25.30;51.90
25108;DHT22;13090;53.422;7.670;2022-08-24T22:32:52;25.30;52.00
25108;DHT22;13090;53.422;7.670;2022-08-24T22:37:56;25.30;51.90
25108;DHT22;13090;53.422;7.670;2022-08-24T22:42:59;25.20;52.40
25108;DHT22;13090;53.422;7.670;2022-08-24T22:48:02;25.20;52.20
25108;DHT22;13090;53.422;7.670;2022-08-24T22:53:06;25.20;51.70
25108;DHT22;13090;53.422;7.670;2022-08-24T22:58:09;25.10;51.60
25108;DHT22;13090;53.422;7.670;2022-08-24T23:03:11;25.10;51.70
25108;DHT22;13090;53.422;7.670;2022-08-24T23:08:15;25.10;52.40
25108;DHT22;13090;53.422;7.670;2022-08-24T23:13:17;25.00;51.60
25108;DHT22;13090;53.422;7.670;2022-08-24T23:18:26;25.00;51.60
25108;DHT22;13090;53.422;7.670;2022-08-24T23:23:30;24.90;51.80
25108;DHT22;13090;53.422;7.670;2022-08-24T23:28:33;24.80;52.10
25108;DHT22;13090;53.422;7.670;2022-08-24T23:33:35;24.70;52.30
25108;DHT22;13090;53.422;7.670;2022-08-24T23:38:42;24.70;52.10
25108;DHT22;13090;53.422;7.670;2022-08-24T23:43:44;24.70;52.50
25108;DHT22;13090;53.422;7.670;2022-08-24T23:48:46;24.60;52.50
25108;DHT22;13090;53.422;7.670;2022-08-24T23:53:59;24.50;52.70
25108;DHT22;13090;53.422;7.670;2022-08-24T23:59:04;24.40;52.80
